sensor_id;sensor_type;location;lat;lon;timestamp;P1;durP1;ratioP1;P2;durP2;ratioP2
67156;SDS011;54086;50.126;8.710;2023-03-01T00:01:15;17.23;;;8.60;;
67156;SDS011;54086;50.126;8.710;2023-03-01T00:03:42;19.58;;;8.18;;
67156;SDS011;54086;50.126;8.710;2023-03-01T00:06:08;18.10;;;9.82;;
67156;SDS011;54086;50.126;8.710;2023-03-01T00:08:34;19.00;;;8.30;;
67156;SDS011;54086;50.126;8.710;2023-03-01T00:11:22;18.73;;;8.23;;
67156;SDS011;54086;50.126;8.710;2023-03-01T00:13:51;17.27;;;8.38;;
67156;SDS011;54086;50.126;8.710;2023-03-01T00:16:22;17.63;;;8.63;;
67156;SDS011;54086;50.126;8.710;2023-03-01T00:18:54;15.57;;;8.00;;
67156;SDS011;54086;50.126;8.710;2023-03-01T00:21:20;24.13;;;9.00;;
67156;SDS011;54086;50.126;8.710;2023-03-01T00:23:47;15.05;;;7.72;;
67156;SDS011;54086;50.126;8.710;2023-03-01T00:26:14;17.95;;;8.23;;
67156;SDS011;54086;50.126;8.710;2023-03-01T00:28:40;15.40;;;8.00;;
67156;SDS011;54086;50.126;8.710;2023-03-01T00:31:10;16.97;;;8.50;;
67156;SDS011;54086;50.126;8.710;2023-03-01T00:33:38;17.37;;;8.53;;
67156;SDS011;54086;50.126;8.710;2023-03-01T00:36:04;17.80;;;9.32;;
67156;SDS011;54086;50.126;8.710;2023-03-01T00:38:30;16.52;;;8.32;;
67156;SDS011;54086;50.126;8.710;2023-03-01T00:41:05;18.73;;;8.93;;
67156;SDS011;54086;50.126;8.710;2023-03-01T00:43:32;21.20;;;9.07;;
67156;SDS011;54086;50.126;8.710;2023-03-01T00:46:02;17.55;;;9.07;;
67156;SDS011;54086;50.126;8.710;2023-03-01T00:48:32;17.52;;;8.52;;
67156;SDS011;54086;50.126;8.710;2023-03-01T00:51:03;16.30;;;8.73;;
67156;SDS011;54086;50.126;8.710;2023-03-01T00:53:36;15.50;;;8.40;;
67156;SDS011;54086;50.126;8.710;2023-03-01T00:56:03;17.02;;;8.13;;
67156;SDS011;54086;50.126;8.710;2023-03-01T00:58:29;15.98;;;8.23;;
67156;SDS011;54086;50.126;8.710;2023-03-01T01:00:55;16.13;;;8.10;;
67156;SDS011;54086;50.126;8.710;2023-03-01T01:03:21;15.70;;;9.20;;
67156;SDS011;54086;50.126;8.710;2023-03-01T01:05:46;18.10;;;8.70;;
67156;SDS011;54086;50.126;8.710;2023-03-01T01:08:11;15.10;;;7.50;;
67156;SDS011;54086;50.126;8.710;2023-03-01T01:10:37;19.52;;;8.43;;
67156;SDS011;54086;50.126;8.710;2023-03-01T01:13:02;17.73;;;8.93;;
67156;SDS011;54086;50.126;8.710;2023-03-01T01:15:28;17.93;;;9.33;;
67156;SDS011;54086;50.126;8.710;2023-03-01T01:17:53;18.23;;;8.48;;
67156;SDS011;54086;50.126;8.710;2023-03-01T01:20:19;17.30;;;8.63;;
67156;SDS011;54086;50.126;8.710;2023-03-01T01:22:45;17.40;;;8.93;;
67156;SDS011;54086;50.126;8.710;2023-03-01T01:25:10;18.43;;;8.83;;
67156;SDS011;54086;50.126;8.710;2023-03-01T01:27:36;18.13;;;9.00;;
67156;SDS011;54086;50.126;8.710;2023-03-01T01:30:02;18.15;;;8.52;;
67156;SDS011;54086;50.126;8.710;2023-03-01T01:32:28;18.90;;;8.60;;
67156;SDS011;54086;50.126;8.710;2023-03-01T01:34:53;16.53;;;8.60;;
67156;SDS011;54086;50.126;8.710;2023-03-01T01:37:19;19.23;;;8.98;;
67156;SDS011;54086;50.126;8.710;2023-03-01T01:39:44;15.80;;;8.23;;
67156;SDS011;54086;50.126;8.710;2023-03-01T01:42:15;17.07;;;8.83;;
67156;SDS011;54086;50.126;8.710;2023-03-01T01:44:42;17.00;;;8.18;;
67156;SDS011;54086;50.126;8.710;2023-03-01T01:47:12;18.30;;;8.82;;
67156;SDS011;54086;50.126;8.710;2023-03-01T01:54:54;14.80;;;8.38;;
67156;SDS011;54086;50.126;8.710;2023-03-01T01:57:25;16.17;;;8.25;;
67156;SDS011;54086;50.126;8.710;2023-03-01T01:59:59;17.50;;;9.35;;
67156;SDS011;54086;50.126;8.710;2023-03-01T02:02:29;18.50;;;8.87;;
67156;SDS011;54086;50.126;8.710;2023-03-01T02:05:03;17.80;;;9.25;;
67156;SDS011;54086;50.126;8.710;2023-03-01T02:07:36;18.97;;;9.03;;
67156;SDS011;54086;50.126;8.710;2023-03-01T02:10:04;17.35;;;8.65;;
67156;SDS011;54086;50.126;8.710;2023-03-01T02:12:30;17.73;;;9.80;;
67156;SDS011;54086;50.126;8.710;2023-03-01T02:14:56;18.67;;;9.70;;
67156;SDS011;54086;50.126;8.710;2023-03-01T02:17:21;17.90;;;8.57;;
67156;SDS011;54086;50.126;8.710;2023-03-01T02:19:51;17.50;;;9.57;;
67156;SDS011;54086;50.126;8.710;2023-03-01T02:22:24;18.02;;;9.07;;
67156;SDS011;54086;50.126;8.710;2023-03-01T02:25:00;16.52;;;8.73;;
67156;SDS011;54086;50.126;8.710;2023-03-01T02:27:58;17.95;;;8.93;;
67156;SDS011;54086;50.126;8.710;2023-03-01T02:30:39;17.17;;;8.43;;
67156;SDS011;54086;50.126;8.710;2023-03-01T02:33:26;18.02;;;8.75;;
67156;SDS011;54086;50.126;8.710;2023-03-01T02:35:52;19.90;;;9.13;;
67156;SDS011;54086;50.126;8.710;2023-03-01T02:38:19;18.25;;;9.95;;
67156;SDS011;54086;50.126;8.710;2023-03-01T02:40:45;20.73;;;9.50;;
67156;SDS011;54086;50.126;8.710;2023-03-01T02:43:10;20.63;;;9.60;;
67156;SDS011;54086;50.126;8.710;2023-03-01T02:45:37;19.63;;;9.20;;
67156;SDS011;54086;50.126;8.710;2023-03-01T02:48:02;19.70;;;9.27;;
67156;SDS011;54086;50.126;8.710;2023-03-01T02:52:57;19.67;;;9.70;;
67156;SDS011;54086;50.126;8.710;2023-03-01T02:55:29;20.92;;;9.15;;
67156;SDS011;54086;50.126;8.710;2023-03-01T02:57:55;18.43;;;8.67;;
67156;SDS011;54086;50.126;8.710;2023-03-01T03:00:23;18.77;;;9.68;;
67156;SDS011;54086;50.126;8.710;2023-03-01T03:02:52;18.70;;;9.48;;
67156;SDS011;54086;50.126;8.710;2023-03-01T03:05:26;20.42;;;9.77;;
67156;SDS011;54086;50.126;8.710;2023-03-01T03:07:53;16.80;;;8.82;;
67156;SDS011;54086;50.126;8.710;2023-03-01T03:10:23;18.67;;;9.20;;
67156;SDS011;54086;50.126;8.710;2023-03-01T03:12:54;18.15;;;10.05;;
67156;SDS011;54086;50.126;8.710;2023-03-01T03:15:24;18.33;;;9.10;;
67156;SDS011;54086;50.126;8.710;2023-03-01T03:17:51;19.80;;;9.73;;
67156;SDS011;54086;50.126;8.710;2023-03-01T03:20:18;20.00;;;10.10;;
67156;SDS011;54086;50.126;8.710;2023-03-01T03:22:47;19.20;;;9.95;;
67156;SDS011;54086;50.126;8.710;2023-03-01T03:25:15;17.80;;;8.90;;
67156;SDS011;54086;50.126;8.710;2023-03-01T03:27:42;18.23;;;9.55;;
67156;SDS011;54086;50.126;8.710;2023-03-01T03:30:10;20.25;;;9.43;;
67156;SDS011;54086;50.126;8.710;2023-03-01T03:32:42;19.97;;;8.87;;
67156;SDS011;54086;50.126;8.710;2023-03-01T03:35:17;20.92;;;10.40;;
67156;SDS011;54086;50.126;8.710;2023-03-01T03:37:44;20.77;;;9.98;;
67156;SDS011;54086;50.126;8.710;2023-03-01T03:40:31;20.55;;;9.82;;
67156;SDS011;54086;50.126;8.710;2023-03-01T03:42:59;19.45;;;9.90;;
67156;SDS011;54086;50.126;8.710;2023-03-01T03:45:24;20.83;;;10.40;;
67156;SDS011;54086;50.126;8.710;2023-03-01T03:47:49;18.47;;;9.50;;
67156;SDS011;54086;50.126;8.710;2023-03-01T03:50:15;19.23;;;9.47;;
67156;SDS011;54086;50.126;8.710;2023-03-01T03:52:42;16.88;;;9.18;;
67156;SDS011;54086;50.126;8.710;2023-03-01T03:55:08;23.97;;;11.03;;
67156;SDS011;54086;50.126;8.710;2023-03-01T03:57:35;18.30;;;9.60;;
67156;SDS011;54086;50.126;8.710;2023-03-01T04:00:08;21.45;;;10.55;;
67156;SDS011;54086;50.126;8.710;2023-03-01T04:02:41;20.45;;;10.32;;
67156;SDS011;54086;50.126;8.710;2023-03-01T04:05:08;21.50;;;10.50;;
67156;SDS011;54086;50.126;8.710;2023-03-01T04:07:35;21.27;;;10.63;;
67156;SDS011;54086;50.126;8.710;2023-03-01T04:10:04;20.27;;;9.57;;
67156;SDS011;54086;50.126;8.710;2023-03-01T04:12:32;20.67;;;10.20;;
67156;SDS011;54086;50.126;8.710;2023-03-01T04:14:59;19.00;;;9.82;;
67156;SDS011;54086;50.126;8.710;2023-03-01T04:17:25;20.55;;;9.52;;
67156;SDS011;54086;50.126;8.710;2023-03-01T04:19:50;19.07;;;11.00;;
67156;SDS011;54086;50.126;8.710;2023-03-01T04:22:16;21.33;;;10.03;;
67156;SDS011;54086;50.126;8.710;2023-03-01T04:24:43;20.60;;;9.82;;
67156;SDS011;54086;50.126;8.710;2023-03-01T04:27:09;20.95;;;10.90;;
67156;SDS011;54086;50.126;8.710;2023-03-01T04:29:35;20.88;;;10.00;;
67156;SDS011;54086;50.126;8.710;2023-03-01T04:32:01;22.70;;;10.40;;
67156;SDS011;54086;50.126;8.710;2023-03-01T04:34:27;22.20;;;10.77;;
67156;SDS011;54086;50.126;8.710;2023-03-01T04:36:53;22.52;;;10.68;;
67156;SDS011;54086;50.126;8.710;2023-03-01T04:39:18;22.97;;;10.37;;
67156;SDS011;54086;50.126;8.710;2023-03-01T04:41:43;21.47;;;9.83;;
67156;SDS011;54086;50.126;8.710;2023-03-01T04:44:09;22.10;;;11.53;;
67156;SDS011;54086;50.126;8.710;2023-03-01T04:46:35;20.92;;;10.48;;
67156;SDS011;54086;50.126;8.710;2023-03-01T04:49:01;21.83;;;10.03;;
67156;SDS011;54086;50.126;8.710;2023-03-01T04:51:27;22.20;;;11.52;;
67156;SDS011;54086;50.126;8.710;2023-03-01T04:53:53;21.33;;;10.38;;
67156;SDS011;54086;50.126;8.710;2023-03-01T04:56:18;25.90;;;11.27;;
67156;SDS011;54086;50.126;8.710;2023-03-01T04:58:44;25.27;;;12.10;;
67156;SDS011;54086;50.126;8.710;2023-03-01T05:01:14;20.10;;;10.38;;
67156;SDS011;54086;50.126;8.710;2023-03-01T05:03:45;23.55;;;10.90;;
67156;SDS011;54086;50.126;8.710;2023-03-01T05:06:12;23.00;;;10.97;;
67156;SDS011;54086;50.126;8.710;2023-03-01T05:08:39;25.95;;;11.05;;
67156;SDS011;54086;50.126;8.710;2023-03-01T05:11:05;25.17;;;11.73;;
67156;SDS011;54086;50.126;8.710;2023-03-01T05:13:30;22.47;;;10.30;;
67156;SDS011;54086;50.126;8.710;2023-03-01T05:15:57;22.13;;;10.77;;
67156;SDS011;54086;50.126;8.710;2023-03-01T05:18:24;22.50;;;10.82;;
67156;SDS011;54086;50.126;8.710;2023-03-01T05:20:51;22.63;;;10.23;;
67156;SDS011;54086;50.126;8.710;2023-03-01T05:23:17;22.70;;;10.00;;
67156;SDS011;54086;50.126;8.710;2023-03-01T05:25:43;24.33;;;10.53;;
67156;SDS011;54086;50.126;8.710;2023-03-01T05:28:10;24.63;;;10.75;;
67156;SDS011;54086;50.126;8.710;2023-03-01T05:30:36;22.80;;;10.50;;
67156;SDS011;54086;50.126;8.710;2023-03-01T05:33:04;24.60;;;10.50;;
67156;SDS011;54086;50.126;8.710;2023-03-01T05:35:32;22.43;;;10.70;;
67156;SDS011;54086;50.126;8.710;2023-03-01T05:37:58;23.70;;;10.55;;
67156;SDS011;54086;50.126;8.710;2023-03-01T05:40:23;20.70;;;10.80;;
67156;SDS011;54086;50.126;8.710;2023-03-01T05:42:51;24.63;;;10.82;;
67156;SDS011;54086;50.126;8.710;2023-03-01T05:45:19;22.98;;;10.88;;
67156;SDS011;54086;50.126;8.710;2023-03-01T05:47:45;24.20;;;11.25;;
67156;SDS011;54086;50.126;8.710;2023-03-01T05:50:13;21.10;;;10.27;;
67156;SDS011;54086;50.126;8.710;2023-03-01T05:52:44;23.50;;;11.10;;
67156;SDS011;54086;50.126;8.710;2023-03-01T05:55:10;23.15;;;11.00;;
67156;SDS011;54086;50.126;8.710;2023-03-01T05:57:36;22.70;;;11.17;;
67156;SDS011;54086;50.126;8.710;2023-03-01T06:00:01;24.10;;;10.73;;
67156;SDS011;54086;50.126;8.710;2023-03-01T06:02:28;22.23;;;11.23;;
67156;SDS011;54086;50.126;8.710;2023-03-01T06:04:54;24.50;;;11.23;;
67156;SDS011;54086;50.126;8.710;2023-03-01T06:07:19;23.43;;;11.03;;
67156;SDS011;54086;50.126;8.710;2023-03-01T06:09:45;22.92;;;10.98;;
67156;SDS011;54086;50.126;8.710;2023-03-01T06:12:10;24.63;;;11.33;;
67156;SDS011;54086;50.126;8.710;2023-03-01T06:14:36;24.53;;;11.17;;
67156;SDS011;54086;50.126;8.710;2023-03-01T06:17:01;21.70;;;10.47;;
67156;SDS011;54086;50.126;8.710;2023-03-01T06:19:26;24.43;;;11.33;;
67156;SDS011;54086;50.126;8.710;2023-03-01T06:21:52;21.20;;;10.83;;
67156;SDS011;54086;50.126;8.710;2023-03-01T06:24:17;21.95;;;11.02;;
67156;SDS011;54086;50.126;8.710;2023-03-01T06:26:42;23.40;;;10.73;;
67156;SDS011;54086;50.126;8.710;2023-03-01T06:29:08;22.17;;;10.50;;
67156;SDS011;54086;50.126;8.710;2023-03-01T06:31:33;26.40;;;11.67;;
67156;SDS011;54086;50.126;8.710;2023-03-01T06:33:59;22.08;;;11.15;;
67156;SDS011;54086;50.126;8.710;2023-03-01T06:36:24;25.57;;;11.43;;
67156;SDS011;54086;50.126;8.710;2023-03-01T06:38:50;25.37;;;12.53;;
67156;SDS011;54086;50.126;8.710;2023-03-01T06:41:15;27.47;;;11.50;;
67156;SDS011;54086;50.126;8.710;2023-03-01T06:43:40;20.83;;;11.33;;
67156;SDS011;54086;50.126;8.710;2023-03-01T06:46:06;21.30;;;10.57;;
67156;SDS011;54086;50.126;8.710;2023-03-01T06:48:32;24.27;;;11.13;;
67156;SDS011;54086;50.126;8.710;2023-03-01T06:50:58;24.02;;;10.57;;
67156;SDS011;54086;50.126;8.710;2023-03-01T06:53:25;24.40;;;11.05;;
67156;SDS011;54086;50.126;8.710;2023-03-01T06:55:58;22.23;;;10.93;;
67156;SDS011;54086;50.126;8.710;2023-03-01T06:58:25;21.27;;;10.23;;
67156;SDS011;54086;50.126;8.710;2023-03-01T07:00:50;23.27;;;11.10;;
67156;SDS011;54086;50.126;8.710;2023-03-01T07:03:16;22.50;;;11.57;;
67156;SDS011;54086;50.126;8.710;2023-03-01T07:05:41;25.50;;;10.50;;
67156;SDS011;54086;50.126;8.710;2023-03-01T07:08:07;22.77;;;10.30;;
67156;SDS011;54086;50.126;8.710;2023-03-01T07:10:32;23.80;;;10.40;;
67156;SDS011;54086;50.126;8.710;2023-03-01T07:12:58;21.95;;;10.45;;
67156;SDS011;54086;50.126;8.710;2023-03-01T07:15:24;20.67;;;10.03;;
67156;SDS011;54086;50.126;8.710;2023-03-01T07:17:50;22.30;;;12.00;;
67156;SDS011;54086;50.126;8.710;2023-03-01T07:20:16;26.13;;;11.07;;
67156;SDS011;54086;50.126;8.710;2023-03-01T07:22:42;22.67;;;11.03;;
67156;SDS011;54086;50.126;8.710;2023-03-01T07:25:08;19.52;;;10.05;;
67156;SDS011;54086;50.126;8.710;2023-03-01T07:27:35;22.83;;;11.63;;
67156;SDS011;54086;50.126;8.710;2023-03-01T07:30:01;25.63;;;11.45;;
67156;SDS011;54086;50.126;8.710;2023-03-01T07:32:27;23.17;;;11.20;;
67156;SDS011;54086;50.126;8.710;2023-03-01T07:34:53;26.43;;;11.90;;
67156;SDS011;54086;50.126;8.710;2023-03-01T07:37:18;22.37;;;10.63;;
67156;SDS011;54086;50.126;8.710;2023-03-01T07:39:43;22.43;;;11.03;;
67156;SDS011;54086;50.126;8.710;2023-03-01T07:42:09;22.67;;;10.77;;
67156;SDS011;54086;50.126;8.710;2023-03-01T07:44:34;21.95;;;11.20;;
67156;SDS011;54086;50.126;8.710;2023-03-01T07:46:59;22.70;;;10.60;;
67156;SDS011;54086;50.126;8.710;2023-03-01T07:49:25;20.17;;;10.40;;
67156;SDS011;54086;50.126;8.710;2023-03-01T07:51:53;20.58;;;9.93;;
67156;SDS011;54086;50.126;8.710;2023-03-01T07:54:19;21.70;;;11.10;;
67156;SDS011;54086;50.126;8.710;2023-03-01T07:56:44;23.08;;;11.40;;
67156;SDS011;54086;50.126;8.710;2023-03-01T07:59:09;20.93;;;10.47;;
67156;SDS011;54086;50.126;8.710;2023-03-01T08:01:35;25.80;;;11.03;;
67156;SDS011;54086;50.126;8.710;2023-03-01T08:04:00;22.00;;;10.60;;
67156;SDS011;54086;50.126;8.710;2023-03-01T08:06:26;20.50;;;10.43;;
67156;SDS011;54086;50.126;8.710;2023-03-01T08:08:52;20.77;;;9.90;;
67156;SDS011;54086;50.126;8.710;2023-03-01T08:11:20;23.90;;;10.82;;
67156;SDS011;54086;50.126;8.710;2023-03-01T08:13:47;19.55;;;10.38;;
67156;SDS011;54086;50.126;8.710;2023-03-01T08:16:14;20.03;;;10.17;;
67156;SDS011;54086;50.126;8.710;2023-03-01T08:18:40;19.52;;;9.90;;
67156;SDS011;54086;50.126;8.710;2023-03-01T08:21:06;18.88;;;10.25;;
67156;SDS011;54086;50.126;8.710;2023-03-01T08:23:34;20.00;;;10.75;;
67156;SDS011;54086;50.126;8.710;2023-03-01T08:26:03;20.20;;;10.20;;
67156;SDS011;54086;50.126;8.710;2023-03-01T08:28:33;18.13;;;10.30;;
67156;SDS011;54086;50.126;8.710;2023-03-01T08:30:58;20.67;;;11.10;;
67156;SDS011;54086;50.126;8.710;2023-03-01T08:33:24;21.40;;;11.73;;
67156;SDS011;54086;50.126;8.710;2023-03-01T08:35:49;18.73;;;10.57;;
67156;SDS011;54086;50.126;8.710;2023-03-01T08:38:14;23.67;;;11.33;;
67156;SDS011;54086;50.126;8.710;2023-03-01T08:40:40;20.23;;;11.45;;
67156;SDS011;54086;50.126;8.710;2023-03-01T08:43:05;19.30;;;10.60;;
67156;SDS011;54086;50.126;8.710;2023-03-01T08:45:30;20.90;;;11.03;;
67156;SDS011;54086;50.126;8.710;2023-03-01T08:47:56;20.03;;;11.07;;
67156;SDS011;54086;50.126;8.710;2023-03-01T08:50:21;20.80;;;11.27;;
67156;SDS011;54086;50.126;8.710;2023-03-01T08:52:49;21.77;;;11.13;;
67156;SDS011;54086;50.126;8.710;2023-03-01T08:55:15;21.30;;;11.10;;
67156;SDS011;54086;50.126;8.710;2023-03-01T08:57:42;20.90;;;11.52;;
67156;SDS011;54086;50.126;8.710;2023-03-01T09:00:07;19.77;;;10.70;;
67156;SDS011;54086;50.126;8.710;2023-03-01T09:02:33;20.50;;;11.45;;
67156;SDS011;54086;50.126;8.710;2023-03-01T09:04:59;22.57;;;10.80;;
67156;SDS011;54086;50.126;8.710;2023-03-01T09:07:25;20.02;;;10.70;;
67156;SDS011;54086;50.126;8.710;2023-03-01T09:09:53;48.47;;;19.43;;
67156;SDS011;54086;50.126;8.710;2023-03-01T09:12:19;24.10;;;12.10;;
67156;SDS011;54086;50.126;8.710;2023-03-01T09:14:44;18.80;;;10.23;;
67156;SDS011;54086;50.126;8.710;2023-03-01T09:17:10;19.13;;;10.67;;
67156;SDS011;54086;50.126;8.710;2023-03-01T09:19:35;20.10;;;10.93;;
67156;SDS011;54086;50.126;8.710;2023-03-01T09:22:00;21.10;;;10.90;;
67156;SDS011;54086;50.126;8.710;2023-03-01T09:24:28;21.23;;;11.45;;
67156;SDS011;54086;50.126;8.710;2023-03-01T09:26:54;18.93;;;11.20;;
67156;SDS011;54086;50.126;8.710;2023-03-01T09:29:21;19.63;;;10.85;;
67156;SDS011;54086;50.126;8.710;2023-03-01T09:31:46;19.40;;;10.65;;
67156;SDS011;54086;50.126;8.710;2023-03-01T09:34:12;17.87;;;10.37;;
67156;SDS011;54086;50.126;8.710;2023-03-01T09:36:41;22.80;;;11.18;;
67156;SDS011;54086;50.126;8.710;2023-03-01T09:39:06;20.70;;;11.73;;
67156;SDS011;54086;50.126;8.710;2023-03-01T09:44:02;20.42;;;10.90;;
67156;SDS011;54086;50.126;8.710;2023-03-01T09:46:30;23.77;;;11.20;;
67156;SDS011;54086;50.126;8.710;2023-03-01T09:49:02;19.53;;;10.63;;
67156;SDS011;54086;50.126;8.710;2023-03-01T09:51:34;21.00;;;11.23;;
67156;SDS011;54086;50.126;8.710;2023-03-01T09:54:01;22.25;;;11.40;;
67156;SDS011;54086;50.126;8.710;2023-03-01T10:05:03;18.70;;;10.57;;
67156;SDS011;54086;50.126;8.710;2023-03-01T10:10:19;18.35;;;10.00;;
67156;SDS011;54086;50.126;8.710;2023-03-01T10:12:52;20.02;;;10.63;;
67156;SDS011;54086;50.126;8.710;2023-03-01T10:15:19;18.13;;;10.30;;
67156;SDS011;54086;50.126;8.710;2023-03-01T10:18:01;19.42;;;11.18;;
67156;SDS011;54086;50.126;8.710;2023-03-01T10:23:22;21.38;;;10.88;;
67156;SDS011;54086;50.126;8.710;2023-03-01T10:31:27;21.33;;;10.68;;
67156;SDS011;54086;50.126;8.710;2023-03-01T10:34:02;19.95;;;11.27;;
67156;SDS011;54086;50.126;8.710;2023-03-01T10:36:28;17.65;;;10.98;;
67156;SDS011;54086;50.126;8.710;2023-03-01T10:38:57;20.47;;;11.23;;
67156;SDS011;54086;50.126;8.710;2023-03-01T10:41:24;20.95;;;11.85;;
67156;SDS011;54086;50.126;8.710;2023-03-01T10:43:57;18.45;;;10.38;;
67156;SDS011;54086;50.126;8.710;2023-03-01T10:51:56;19.27;;;10.80;;
67156;SDS011;54086;50.126;8.710;2023-03-01T10:54:42;21.75;;;11.23;;
67156;SDS011;54086;50.126;8.710;2023-03-01T10:57:28;23.55;;;11.82;;
67156;SDS011;54086;50.126;8.710;2023-03-01T11:00:00;22.25;;;10.73;;
67156;SDS011;54086;50.126;8.710;2023-03-01T11:03:33;21.92;;;11.30;;
67156;SDS011;54086;50.126;8.710;2023-03-01T11:05:37;17.50;;;10.10;;
67156;SDS011;54086;50.126;8.710;2023-03-01T11:08:26;18.30;;;10.18;;
67156;SDS011;54086;50.126;8.710;2023-03-01T11:11:06;17.42;;;10.18;;
67156;SDS011;54086;50.126;8.710;2023-03-01T11:13:34;18.02;;;9.82;;
67156;SDS011;54086;50.126;8.710;2023-03-01T11:16:00;18.23;;;9.87;;
67156;SDS011;54086;50.126;8.710;2023-03-01T11:18:28;19.08;;;10.35;;
67156;SDS011;54086;50.126;8.710;2023-03-01T11:20:55;17.70;;;10.05;;
67156;SDS011;54086;50.126;8.710;2023-03-01T11:23:22;17.98;;;9.13;;
67156;SDS011;54086;50.126;8.710;2023-03-01T11:25:51;22.50;;;10.37;;
67156;SDS011;54086;50.126;8.710;2023-03-01T11:28:20;17.33;;;9.45;;
67156;SDS011;54086;50.126;8.710;2023-03-01T11:33:33;17.58;;;9.48;;
67156;SDS011;54086;50.126;8.710;2023-03-01T11:38:32;16.80;;;8.23;;
67156;SDS011;54086;50.126;8.710;2023-03-01T11:43:50;15.48;;;8.50;;
67156;SDS011;54086;50.126;8.710;2023-03-01T11:49:12;17.48;;;8.60;;
67156;SDS011;54086;50.126;8.710;2023-03-01T11:57:30;15.75;;;8.23;;
67156;SDS011;54086;50.126;8.710;2023-03-01T12:00:24;15.18;;;8.15;;
67156;SDS011;54086;50.126;8.710;2023-03-01T12:14:05;15.10;;;8.20;;
67156;SDS011;54086;50.126;8.710;2023-03-01T12:22:08;15.43;;;8.20;;
67156;SDS011;54086;50.126;8.710;2023-03-01T12:32:47;17.67;;;8.60;;
67156;SDS011;54086;50.126;8.710;2023-03-01T12:35:54;16.77;;;8.25;;
67156;SDS011;54086;50.126;8.710;2023-03-01T12:38:45;16.00;;;7.60;;
67156;SDS011;54086;50.126;8.710;2023-03-01T12:49:37;14.02;;;8.13;;
67156;SDS011;54086;50.126;8.710;2023-03-01T12:52:10;16.23;;;7.93;;
67156;SDS011;54086;50.126;8.710;2023-03-01T12:54:55;16.75;;;7.28;;
67156;SDS011;54086;50.126;8.710;2023-03-01T13:02:57;16.92;;;8.40;;
67156;SDS011;54086;50.126;8.710;2023-03-01T13:08:26;13.70;;;7.60;;
67156;SDS011;54086;50.126;8.710;2023-03-01T13:10:56;14.02;;;7.40;;
67156;SDS011;54086;50.126;8.710;2023-03-01T13:13:27;14.80;;;6.60;;
67156;SDS011;54086;50.126;8.710;2023-03-01T13:15:55;14.43;;;7.88;;
67156;SDS011;54086;50.126;8.710;2023-03-01T13:20:49;15.98;;;8.25;;
67156;SDS011;54086;50.126;8.710;2023-03-01T13:26:00;20.13;;;8.20;;
67156;SDS011;54086;50.126;8.710;2023-03-01T13:33:48;16.52;;;10.00;;
67156;SDS011;54086;50.126;8.710;2023-03-01T13:38:56;15.37;;;8.40;;
67156;SDS011;54086;50.126;8.710;2023-03-01T13:49:54;15.43;;;8.32;;
67156;SDS011;54086;50.126;8.710;2023-03-01T13:57:38;17.02;;;8.45;;
67156;SDS011;54086;50.126;8.710;2023-03-01T14:00:05;17.17;;;8.97;;
67156;SDS011;54086;50.126;8.710;2023-03-01T14:02:31;16.08;;;7.95;;
67156;SDS011;54086;50.126;8.710;2023-03-01T14:04:57;19.05;;;8.40;;
67156;SDS011;54086;50.126;8.710;2023-03-01T14:07:24;15.17;;;8.23;;
67156;SDS011;54086;50.126;8.710;2023-03-01T14:09:54;16.65;;;8.75;;
67156;SDS011;54086;50.126;8.710;2023-03-01T14:12:44;15.77;;;7.60;;
67156;SDS011;54086;50.126;8.710;2023-03-01T14:15:27;15.27;;;7.63;;
67156;SDS011;54086;50.126;8.710;2023-03-01T14:18:07;15.18;;;7.90;;
67156;SDS011;54086;50.126;8.710;2023-03-01T14:20:40;15.10;;;7.77;;
67156;SDS011;54086;50.126;8.710;2023-03-01T14:23:28;17.10;;;9.10;;
67156;SDS011;54086;50.126;8.710;2023-03-01T14:25:54;15.73;;;8.23;;
67156;SDS011;54086;50.126;8.710;2023-03-01T14:28:23;15.43;;;8.30;;
67156;SDS011;54086;50.126;8.710;2023-03-01T14:30:55;15.65;;;7.97;;
67156;SDS011;54086;50.126;8.710;2023-03-01T14:33:35;14.70;;;7.73;;
67156;SDS011;54086;50.126;8.710;2023-03-01T14:36:06;16.83;;;7.93;;
67156;SDS011;54086;50.126;8.710;2023-03-01T14:38:34;16.13;;;7.80;;
67156;SDS011;54086;50.126;8.710;2023-03-01T14:41:11;17.63;;;8.85;;
67156;SDS011;54086;50.126;8.710;2023-03-01T14:43:47;20.27;;;8.00;;
67156;SDS011;54086;50.126;8.710;2023-03-01T14:48:55;15.35;;;7.68;;
67156;SDS011;54086;50.126;8.710;2023-03-01T14:51:23;15.68;;;7.97;;
67156;SDS011;54086;50.126;8.710;2023-03-01T14:53:49;17.58;;;8.43;;
67156;SDS011;54086;50.126;8.710;2023-03-01T14:56:16;14.77;;;7.55;;
67156;SDS011;54086;50.126;8.710;2023-03-01T14:58:42;15.80;;;8.47;;
67156;SDS011;54086;50.126;8.710;2023-03-01T15:01:10;15.93;;;7.75;;
67156;SDS011;54086;50.126;8.710;2023-03-01T15:03:46;15.25;;;8.20;;
67156;SDS011;54086;50.126;8.710;2023-03-01T15:06:22;15.53;;;7.80;;
67156;SDS011;54086;50.126;8.710;2023-03-01T15:08:50;15.30;;;8.18;;
67156;SDS011;54086;50.126;8.710;2023-03-01T15:11:29;15.73;;;7.18;;
67156;SDS011;54086;50.126;8.710;2023-03-01T15:13:56;16.00;;;7.43;;
67156;SDS011;54086;50.126;8.710;2023-03-01T15:16:23;21.27;;;8.50;;
67156;SDS011;54086;50.126;8.710;2023-03-01T15:18:50;14.93;;;7.67;;
67156;SDS011;54086;50.126;8.710;2023-03-01T15:21:22;15.98;;;7.40;;
67156;SDS011;54086;50.126;8.710;2023-03-01T15:23:51;16.77;;;7.88;;
67156;SDS011;54086;50.126;8.710;2023-03-01T15:26:27;16.77;;;7.18;;
67156;SDS011;54086;50.126;8.710;2023-03-01T15:28:59;18.08;;;7.70;;
67156;SDS011;54086;50.126;8.710;2023-03-01T15:31:29;14.80;;;7.33;;
67156;SDS011;54086;50.126;8.710;2023-03-01T15:34:10;14.18;;;7.85;;
67156;SDS011;54086;50.126;8.710;2023-03-01T15:36:47;13.63;;;7.18;;
67156;SDS011;54086;50.126;8.710;2023-03-01T15:39:30;14.43;;;6.85;;
67156;SDS011;54086;50.126;8.710;2023-03-01T15:41:58;13.35;;;6.57;;
67156;SDS011;54086;50.126;8.710;2023-03-01T15:44:25;13.27;;;6.77;;
67156;SDS011;54086;50.126;8.710;2023-03-01T15:46:56;13.70;;;7.45;;
67156;SDS011;54086;50.126;8.710;2023-03-01T15:49:38;13.27;;;6.70;;
67156;SDS011;54086;50.126;8.710;2023-03-01T15:52:27;15.00;;;7.10;;
67156;SDS011;54086;50.126;8.710;2023-03-01T15:54:57;12.93;;;6.40;;
67156;SDS011;54086;50.126;8.710;2023-03-01T15:57:24;18.88;;;6.97;;
67156;SDS011;54086;50.126;8.710;2023-03-01T15:59:50;15.70;;;7.63;;
67156;SDS011;54086;50.126;8.710;2023-03-01T16:02:15;14.13;;;7.38;;
67156;SDS011;54086;50.126;8.710;2023-03-01T16:04:41;13.83;;;6.67;;
67156;SDS011;54086;50.126;8.710;2023-03-01T16:07:08;18.08;;;8.00;;
67156;SDS011;54086;50.126;8.710;2023-03-01T16:09:34;18.08;;;7.57;;
67156;SDS011;54086;50.126;8.710;2023-03-01T16:12:00;15.97;;;7.53;;
67156;SDS011;54086;50.126;8.710;2023-03-01T16:14:26;16.85;;;7.88;;
67156;SDS011;54086;50.126;8.710;2023-03-01T16:16:52;17.07;;;8.00;;
67156;SDS011;54086;50.126;8.710;2023-03-01T16:19:17;16.57;;;7.90;;
67156;SDS011;54086;50.126;8.710;2023-03-01T16:21:43;15.45;;;7.53;;
67156;SDS011;54086;50.126;8.710;2023-03-01T16:24:11;14.10;;;7.00;;
67156;SDS011;54086;50.126;8.710;2023-03-01T16:26:38;16.90;;;7.78;;
67156;SDS011;54086;50.126;8.710;2023-03-01T16:29:03;14.50;;;7.50;;
67156;SDS011;54086;50.126;8.710;2023-03-01T16:31:29;13.67;;;6.77;;
67156;SDS011;54086;50.126;8.710;2023-03-01T16:33:56;14.85;;;7.65;;
67156;SDS011;54086;50.126;8.710;2023-03-01T16:36:23;16.02;;;7.70;;
67156;SDS011;54086;50.126;8.710;2023-03-01T16:38:51;17.83;;;7.28;;
67156;SDS011;54086;50.126;8.710;2023-03-01T16:41:18;16.47;;;7.30;;